This is the latest recevied weather packets stored in our database for station/object DL1GHN-6. If no packets are shown the sender has not sent any weather packets the latest 1 day(s).
| Time | Temp. | Humidity | Pressure | Rain* | Wind** | Luminosity | Snow |
|---|---|---|---|---|---|---|---|
| 1778001617 | 14.44° C | 87% | 1007.5 hPa | 0 mm | 0.89 m/s, 241° | 69 W/m² | - |
| 1778001318 | 14.44° C | 87% | 1007.5 hPa | 0 mm | 0.89 m/s, 198° | 70 W/m² | - |
| 1778001017 | 14.44° C | 87% | 1007.5 hPa | 0 mm | 0.45 m/s, 188° | 69 W/m² | - |
| 1778000717 | 14.44° C | 87% | 1007.5 hPa | 0 mm | 0.89 m/s, 169° | 63 W/m² | - |
| 1778000417 | 14.44° C | 87% | 1007.5 hPa | 0.25 mm | 0.89 m/s, 175° | 60 W/m² | - |
| 1778000117 | 14.44° C | 87% | 1007.5 hPa | 0.25 mm | 0.45 m/s, 207° | 56 W/m² | - |
| 1777999818 | 14.44° C | 87% | 1007.3 hPa | 0.51 mm | 1.34 m/s, 120° | 54 W/m² | - |
| 1777999518 | 14.44° C | 87% | 1007.4 hPa | 0.51 mm | 0.89 m/s, 169° | 51 W/m² | - |
| 1777999217 | 14.44° C | 87% | 1007.5 hPa | 2.29 mm | 1.34 m/s, 185° | 49 W/m² | - |
| 1777998918 | 14.44° C | 86% | 1007.4 hPa | 4.32 mm | 1.79 m/s, 182° | 46 W/m² | - |
| 1777998617 | 15° C | 86% | 1007.5 hPa | 5.33 mm | 2.24 m/s, 186° | 39 W/m² | - |
| 1777998325 | 15° C | 87% | 1007.5 hPa | 5.59 mm | 2.24 m/s, 217° | 30 W/m² | - |
| 1777998017 | 15° C | 87% | 1007.5 hPa | 5.59 mm | 0.89 m/s, 203° | 26 W/m² | - |
| 1777997719 | 15° C | 86% | 1007.3 hPa | 5.59 mm | 1.79 m/s, 175° | 21 W/m² | - |
| 1777997417 | 15° C | 86% | 1007.4 hPa | 5.59 mm | 1.34 m/s, 199° | 21 W/m² | - |
| 1777997118 | 15.56° C | 85% | 1007.4 hPa | 5.59 mm | 2.24 m/s, 230° | 18 W/m² | - |
| 1777996819 | 15.56° C | 84% | 1007.4 hPa | 5.33 mm | 1.79 m/s, 190° | 14 W/m² | - |
| 1777996518 | 15.56° C | 83% | 1007.3 hPa | 5.33 mm | 1.34 m/s, 175° | 11 W/m² | - |
| 1777996217 | 16.11° C | 81% | 1007.2 hPa | 5.08 mm | 1.34 m/s, 173° | 9 W/m² | - |
| 1777995917 | 16.67° C | 81% | 1007.1 hPa | 5.08 mm | 1.79 m/s, 154° | 7 W/m² | - |
| 1777995617 | 17.22° C | 80% | 1007.5 hPa | 3.3 mm | 1.79 m/s, 132° | 5 W/m² | - |
| 1777995318 | 17.78° C | 76% | 1007.1 hPa | 1.52 mm | 0.45 m/s, 154° | 12 W/m² | - |
| 1777995018 | 18.33° C | 76% | 1007 hPa | 0.25 mm | 0.89 m/s, 5° | 21 W/m² | - |
| 1777994717 | 18.33° C | 73% | 1007.1 hPa | 0 mm | 0.45 m/s, 321° | 30 W/m² | - |
| 1777994418 | 18.33° C | 72% | 1007 hPa | 0 mm | 0.45 m/s, 16° | 42 W/m² | - |
* Rain latest hour (hover to see other rain measurements)
** Current wind speed in m/s (hover to see current wind gust speed)